Osceola, Wisconsin
Current Conditions -  °F | °C
As of 4:35 AM on Thursday 23 Oct 2014 (Local Time) from KOEO Reporting Station
Moderate Rain Moderate Rain  
Wind Chill: 47°   Ceiling: 1800
Heat Index: 49°   Visibility: 10mi
Dew Point: 49°   Wind: 6mph
Humidity: 100%   Direction: 150°SSE
Pressure: 30.02"   Gusts: NA
Location:  45.32°N, 92.7°W
Report Text: KOEO 230935Z AUTO 15005KT 10SM RA OVC018 10/10 A3002 RMK AO2 T00960096
Loading
Personal Weather Stations






























Interactive Weather Map
Tropical Storm Tracking
New forecast layout! Learn more

10-Day Weather Forecast

Advertisements
Track Severe Weather on mobile